sensor_id;sensor_type;location;lat;lon;timestamp;P1;durP1;ratioP1;P2;durP2;ratioP2
60917;SDS011;46792;38.854;-9.384;2023-05-10T00:01:52;37.60;;;4.47;;
60917;SDS011;46792;38.854;-9.384;2023-05-10T00:04:11;24.42;;;4.88;;
60917;SDS011;46792;38.854;-9.384;2023-05-10T00:06:30;30.75;;;4.35;;
60917;SDS011;46792;38.854;-9.384;2023-05-10T00:08:50;27.90;;;5.63;;
60917;SDS011;46792;38.854;-9.384;2023-05-10T00:10:51;23.52;;;3.90;;
60917;SDS011;46792;38.854;-9.384;2023-05-10T00:13:10;40.45;;;5.43;;
60917;SDS011;46792;38.854;-9.384;2023-05-10T00:15:29;30.92;;;4.07;;
60917;SDS011;46792;38.854;-9.384;2023-05-10T00:17:51;27.35;;;4.43;;
60917;SDS011;46792;38.854;-9.384;2023-05-10T00:19:52;21.20;;;4.38;;
60917;SDS011;46792;38.854;-9.384;2023-05-10T00:21:52;39.92;;;5.05;;
60917;SDS011;46792;38.854;-9.384;2023-05-10T00:23:53;27.73;;;4.63;;
60917;SDS011;46792;38.854;-9.384;2023-05-10T00:25:54;30.08;;;3.30;;
60917;SDS011;46792;38.854;-9.384;2023-05-10T00:27:54;26.33;;;4.15;;
60917;SDS011;46792;38.854;-9.384;2023-05-10T00:29:57;28.25;;;5.22;;
60917;SDS011;46792;38.854;-9.384;2023-05-10T00:32:16;33.70;;;4.95;;
60917;SDS011;46792;38.854;-9.384;2023-05-10T00:34:17;38.97;;;4.78;;
60917;SDS011;46792;38.854;-9.384;2023-05-10T00:36:18;26.27;;;4.50;;
60917;SDS011;46792;38.854;-9.384;2023-05-10T00:38:19;23.42;;;4.70;;
60917;SDS011;46792;38.854;-9.384;2023-05-10T00:40:19;27.08;;;4.85;;
60917;SDS011;46792;38.854;-9.384;2023-05-10T00:42:25;26.90;;;4.47;;
60917;SDS011;46792;38.854;-9.384;2023-05-10T00:44:27;30.58;;;4.22;;
60917;SDS011;46792;38.854;-9.384;2023-05-10T00:46:28;22.73;;;3.95;;
60917;SDS011;46792;38.854;-9.384;2023-05-10T00:48:29;37.50;;;4.53;;
60917;SDS011;46792;38.854;-9.384;2023-05-10T00:50:48;26.77;;;4.32;;
60917;SDS011;46792;38.854;-9.384;2023-05-10T00:52:49;24.48;;;4.07;;
60917;SDS011;46792;38.854;-9.384;2023-05-10T00:54:51;29.63;;;4.20;;
60917;SDS011;46792;38.854;-9.384;2023-05-10T00:56:52;28.95;;;6.95;;
60917;SDS011;46792;38.854;-9.384;2023-05-10T00:58:53;31.77;;;6.13;;
60917;SDS011;46792;38.854;-9.384;2023-05-10T01:00:54;23.55;;;4.65;;
60917;SDS011;46792;38.854;-9.384;2023-05-10T01:02:56;35.67;;;4.43;;
60917;SDS011;46792;38.854;-9.384;2023-05-10T01:04:57;28.15;;;4.97;;
60917;SDS011;46792;38.854;-9.384;2023-05-10T01:06:57;35.83;;;5.80;;
60917;SDS011;46792;38.854;-9.384;2023-05-10T01:08:58;27.38;;;4.35;;
60917;SDS011;46792;38.854;-9.384;2023-05-10T01:10:59;35.70;;;4.65;;
60917;SDS011;46792;38.854;-9.384;2023-05-10T01:12:59;37.10;;;6.72;;
60917;SDS011;46792;38.854;-9.384;2023-05-10T01:15:00;30.27;;;5.70;;
60917;SDS011;46792;38.854;-9.384;2023-05-10T01:17:02;31.15;;;4.38;;
60917;SDS011;46792;38.854;-9.384;2023-05-10T01:19:06;33.25;;;4.65;;
60917;SDS011;46792;38.854;-9.384;2023-05-10T01:26:28;37.38;;;5.10;;
60917;SDS011;46792;38.854;-9.384;2023-05-10T01:28:39;31.45;;;5.55;;
60917;SDS011;46792;38.854;-9.384;2023-05-10T01:30:58;26.10;;;4.85;;
60917;SDS011;46792;38.854;-9.384;2023-05-10T01:40:23;25.58;;;5.13;;
60917;SDS011;46792;38.854;-9.384;2023-05-10T01:42:53;32.72;;;5.20;;
60917;SDS011;46792;38.854;-9.384;2023-05-10T01:47:54;36.85;;;7.47;;
60917;SDS011;46792;38.854;-9.384;2023-05-10T01:50:03;35.67;;;5.35;;
60917;SDS011;46792;38.854;-9.384;2023-05-10T01:52:08;27.17;;;5.72;;
60917;SDS011;46792;38.854;-9.384;2023-05-10T01:54:12;31.50;;;5.10;;
60917;SDS011;46792;38.854;-9.384;2023-05-10T01:56:15;35.45;;;4.65;;
60917;SDS011;46792;38.854;-9.384;2023-05-10T01:58:40;35.20;;;4.72;;
60917;SDS011;46792;38.854;-9.384;2023-05-10T02:00:49;24.52;;;4.60;;
60917;SDS011;46792;38.854;-9.384;2023-05-10T02:02:52;22.85;;;3.58;;
60917;SDS011;46792;38.854;-9.384;2023-05-10T02:04:55;39.28;;;4.80;;
60917;SDS011;46792;38.854;-9.384;2023-05-10T02:06:57;35.08;;;5.60;;
60917;SDS011;46792;38.854;-9.384;2023-05-10T02:08:59;23.60;;;4.53;;
60917;SDS011;46792;38.854;-9.384;2023-05-10T02:11:01;28.98;;;5.25;;
60917;SDS011;46792;38.854;-9.384;2023-05-10T02:13:03;19.67;;;3.95;;
60917;SDS011;46792;38.854;-9.384;2023-05-10T02:15:06;25.08;;;3.10;;
60917;SDS011;46792;38.854;-9.384;2023-05-10T02:17:09;27.95;;;4.10;;
60917;SDS011;46792;38.854;-9.384;2023-05-10T02:19:10;24.27;;;4.45;;
60917;SDS011;46792;38.854;-9.384;2023-05-10T02:21:12;23.75;;;4.30;;
60917;SDS011;46792;38.854;-9.384;2023-05-10T02:23:15;20.45;;;4.55;;
60917;SDS011;46792;38.854;-9.384;2023-05-10T02:25:19;30.48;;;4.38;;
60917;SDS011;46792;38.854;-9.384;2023-05-10T02:27:22;26.60;;;3.80;;
60917;SDS011;46792;38.854;-9.384;2023-05-10T02:29:24;25.92;;;4.88;;
60917;SDS011;46792;38.854;-9.384;2023-05-10T02:31:49;24.00;;;4.35;;
60917;SDS011;46792;38.854;-9.384;2023-05-10T02:33:52;36.95;;;4.50;;
60917;SDS011;46792;38.854;-9.384;2023-05-10T02:35:54;36.92;;;4.57;;
60917;SDS011;46792;38.854;-9.384;2023-05-10T02:37:55;26.30;;;4.13;;
60917;SDS011;46792;38.854;-9.384;2023-05-10T02:39:58;30.42;;;4.55;;
60917;SDS011;46792;38.854;-9.384;2023-05-10T02:42:00;29.27;;;5.13;;
60917;SDS011;46792;38.854;-9.384;2023-05-10T02:44:03;28.80;;;4.45;;
60917;SDS011;46792;38.854;-9.384;2023-05-10T02:46:08;33.08;;;5.28;;
60917;SDS011;46792;38.854;-9.384;2023-05-10T02:48:09;28.08;;;3.75;;
60917;SDS011;46792;38.854;-9.384;2023-05-10T02:50:10;46.08;;;7.32;;
60917;SDS011;46792;38.854;-9.384;2023-05-10T02:52:11;18.73;;;3.65;;
60917;SDS011;46792;38.854;-9.384;2023-05-10T02:54:49;30.50;;;3.85;;
60917;SDS011;46792;38.854;-9.384;2023-05-10T02:56:56;34.75;;;3.85;;
60917;SDS011;46792;38.854;-9.384;2023-05-10T02:58:58;13.05;;;3.13;;
60917;SDS011;46792;38.854;-9.384;2023-05-10T03:00:59;25.17;;;4.32;;
60917;SDS011;46792;38.854;-9.384;2023-05-10T03:03:00;31.85;;;4.07;;
60917;SDS011;46792;38.854;-9.384;2023-05-10T03:05:02;24.17;;;3.75;;
60917;SDS011;46792;38.854;-9.384;2023-05-10T03:07:03;21.48;;;4.32;;
60917;SDS011;46792;38.854;-9.384;2023-05-10T03:09:04;31.20;;;4.32;;
60917;SDS011;46792;38.854;-9.384;2023-05-10T03:17:45;21.08;;;3.95;;
60917;SDS011;46792;38.854;-9.384;2023-05-10T03:20:04;33.70;;;4.28;;
60917;SDS011;46792;38.854;-9.384;2023-05-10T03:22:11;22.92;;;3.45;;
60917;SDS011;46792;38.854;-9.384;2023-05-10T03:24:20;30.13;;;4.65;;
60917;SDS011;46792;38.854;-9.384;2023-05-10T03:26:24;16.30;;;3.63;;
60917;SDS011;46792;38.854;-9.384;2023-05-10T03:28:32;22.55;;;5.53;;
60917;SDS011;46792;38.854;-9.384;2023-05-10T03:30:35;32.20;;;3.28;;
60917;SDS011;46792;38.854;-9.384;2023-05-10T03:32:37;34.72;;;4.63;;
60917;SDS011;46792;38.854;-9.384;2023-05-10T03:34:41;26.38;;;3.55;;
60917;SDS011;46792;38.854;-9.384;2023-05-10T03:36:43;25.85;;;3.78;;
60917;SDS011;46792;38.854;-9.384;2023-05-10T03:39:03;17.40;;;3.55;;
60917;SDS011;46792;38.854;-9.384;2023-05-10T03:41:04;19.00;;;3.22;;
60917;SDS011;46792;38.854;-9.384;2023-05-10T03:43:05;20.63;;;3.78;;
60917;SDS011;46792;38.854;-9.384;2023-05-10T03:45:06;32.97;;;3.83;;
60917;SDS011;46792;38.854;-9.384;2023-05-10T03:47:07;21.88;;;4.43;;
60917;SDS011;46792;38.854;-9.384;2023-05-10T03:49:08;25.33;;;5.13;;
60917;SDS011;46792;38.854;-9.384;2023-05-10T03:51:10;15.07;;;3.30;;
60917;SDS011;46792;38.854;-9.384;2023-05-10T03:53:11;22.25;;;4.10;;
60917;SDS011;46792;38.854;-9.384;2023-05-10T03:55:12;39.67;;;4.05;;
60917;SDS011;46792;38.854;-9.384;2023-05-10T03:57:13;19.85;;;3.42;;
60917;SDS011;46792;38.854;-9.384;2023-05-10T03:59:13;22.65;;;3.75;;
60917;SDS011;46792;38.854;-9.384;2023-05-10T04:01:14;14.48;;;3.78;;
60917;SDS011;46792;38.854;-9.384;2023-05-10T04:03:15;24.13;;;3.90;;
60917;SDS011;46792;38.854;-9.384;2023-05-10T04:05:15;17.10;;;3.03;;
60917;SDS011;46792;38.854;-9.384;2023-05-10T04:07:16;28.95;;;5.30;;
60917;SDS011;46792;38.854;-9.384;2023-05-10T04:09:18;26.02;;;5.18;;
60917;SDS011;46792;38.854;-9.384;2023-05-10T04:11:18;21.23;;;4.05;;
60917;SDS011;46792;38.854;-9.384;2023-05-10T04:13:21;28.00;;;4.38;;
60917;SDS011;46792;38.854;-9.384;2023-05-10T04:15:22;29.98;;;4.00;;
60917;SDS011;46792;38.854;-9.384;2023-05-10T04:17:23;17.80;;;3.65;;
60917;SDS011;46792;38.854;-9.384;2023-05-10T04:19:23;23.23;;;3.72;;
60917;SDS011;46792;38.854;-9.384;2023-05-10T04:21:24;18.33;;;3.45;;
60917;SDS011;46792;38.854;-9.384;2023-05-10T04:23:43;22.23;;;3.15;;
60917;SDS011;46792;38.854;-9.384;2023-05-10T04:26:02;43.15;;;6.38;;
60917;SDS011;46792;38.854;-9.384;2023-05-10T04:28:03;19.50;;;4.70;;
60917;SDS011;46792;38.854;-9.384;2023-05-10T04:30:04;18.33;;;3.63;;
60917;SDS011;46792;38.854;-9.384;2023-05-10T04:32:05;22.45;;;3.92;;
60917;SDS011;46792;38.854;-9.384;2023-05-10T04:34:24;19.77;;;3.47;;
60917;SDS011;46792;38.854;-9.384;2023-05-10T04:36:44;24.85;;;2.65;;
60917;SDS011;46792;38.854;-9.384;2023-05-10T04:38:44;23.23;;;3.60;;
60917;SDS011;46792;38.854;-9.384;2023-05-10T04:40:45;28.85;;;4.18;;
60917;SDS011;46792;38.854;-9.384;2023-05-10T04:42:45;20.25;;;3.42;;
60917;SDS011;46792;38.854;-9.384;2023-05-10T04:44:46;16.10;;;3.30;;
60917;SDS011;46792;38.854;-9.384;2023-05-10T04:46:47;24.85;;;3.03;;
60917;SDS011;46792;38.854;-9.384;2023-05-10T04:49:05;22.52;;;4.65;;
60917;SDS011;46792;38.854;-9.384;2023-05-10T04:51:06;26.05;;;4.57;;
60917;SDS011;46792;38.854;-9.384;2023-05-10T04:53:07;14.57;;;3.17;;
60917;SDS011;46792;38.854;-9.384;2023-05-10T04:55:25;20.23;;;3.63;;
60917;SDS011;46792;38.854;-9.384;2023-05-10T04:57:27;10.07;;;2.35;;
60917;SDS011;46792;38.854;-9.384;2023-05-10T04:59:27;27.05;;;3.70;;
60917;SDS011;46792;38.854;-9.384;2023-05-10T05:01:28;20.63;;;3.60;;
60917;SDS011;46792;38.854;-9.384;2023-05-10T05:03:28;23.17;;;3.30;;
60917;SDS011;46792;38.854;-9.384;2023-05-10T05:05:29;21.80;;;3.17;;
60917;SDS011;46792;38.854;-9.384;2023-05-10T05:07:30;22.42;;;3.60;;
60917;SDS011;46792;38.854;-9.384;2023-05-10T05:09:30;24.02;;;3.30;;
60917;SDS011;46792;38.854;-9.384;2023-05-10T05:11:32;12.20;;;3.00;;
60917;SDS011;46792;38.854;-9.384;2023-05-10T05:13:32;15.98;;;3.33;;
60917;SDS011;46792;38.854;-9.384;2023-05-10T05:15:52;19.17;;;4.10;;
60917;SDS011;46792;38.854;-9.384;2023-05-10T05:17:53;22.45;;;3.78;;
60917;SDS011;46792;38.854;-9.384;2023-05-10T05:19:54;18.00;;;2.67;;
60917;SDS011;46792;38.854;-9.384;2023-05-10T05:21:57;22.95;;;4.50;;
60917;SDS011;46792;38.854;-9.384;2023-05-10T05:23:58;30.67;;;3.80;;
60917;SDS011;46792;38.854;-9.384;2023-05-10T05:25:58;20.63;;;3.63;;
60917;SDS011;46792;38.854;-9.384;2023-05-10T05:27:59;12.70;;;2.97;;
60917;SDS011;46792;38.854;-9.384;2023-05-10T05:30:00;13.93;;;2.58;;
60917;SDS011;46792;38.854;-9.384;2023-05-10T05:32:19;20.90;;;3.42;;
60917;SDS011;46792;38.854;-9.384;2023-05-10T05:34:35;20.30;;;2.58;;
60917;SDS011;46792;38.854;-9.384;2023-05-10T05:36:36;25.67;;;3.85;;
60917;SDS011;46792;38.854;-9.384;2023-05-10T05:38:40;12.20;;;3.85;;
60917;SDS011;46792;38.854;-9.384;2023-05-10T05:40:41;18.55;;;2.97;;
60917;SDS011;46792;38.854;-9.384;2023-05-10T05:42:41;20.90;;;2.72;;
60917;SDS011;46792;38.854;-9.384;2023-05-10T05:44:42;22.27;;;3.53;;
60917;SDS011;46792;38.854;-9.384;2023-05-10T05:46:42;22.83;;;3.30;;
60917;SDS011;46792;38.854;-9.384;2023-05-10T05:48:43;17.25;;;4.05;;
60917;SDS011;46792;38.854;-9.384;2023-05-10T05:50:43;24.55;;;3.70;;
60917;SDS011;46792;38.854;-9.384;2023-05-10T05:52:45;29.20;;;5.10;;
60917;SDS011;46792;38.854;-9.384;2023-05-10T05:54:46;20.83;;;4.35;;
60917;SDS011;46792;38.854;-9.384;2023-05-10T05:56:46;30.88;;;3.67;;
60917;SDS011;46792;38.854;-9.384;2023-05-10T05:58:47;17.15;;;2.92;;
60917;SDS011;46792;38.854;-9.384;2023-05-10T06:00:48;15.55;;;3.38;;
60917;SDS011;46792;38.854;-9.384;2023-05-10T06:02:49;21.42;;;3.17;;
60917;SDS011;46792;38.854;-9.384;2023-05-10T06:04:50;21.83;;;4.30;;
60917;SDS011;46792;38.854;-9.384;2023-05-10T06:06:50;32.47;;;4.07;;
60917;SDS011;46792;38.854;-9.384;2023-05-10T06:08:51;16.45;;;3.40;;
60917;SDS011;46792;38.854;-9.384;2023-05-10T06:10:52;21.70;;;4.40;;
60917;SDS011;46792;38.854;-9.384;2023-05-10T06:12:52;26.30;;;3.47;;
60917;SDS011;46792;38.854;-9.384;2023-05-10T06:14:53;23.25;;;3.88;;
60917;SDS011;46792;38.854;-9.384;2023-05-10T06:17:12;34.20;;;4.40;;
60917;SDS011;46792;38.854;-9.384;2023-05-10T06:19:31;22.55;;;3.67;;
60917;SDS011;46792;38.854;-9.384;2023-05-10T06:21:31;15.57;;;4.50;;
60917;SDS011;46792;38.854;-9.384;2023-05-10T06:23:32;16.85;;;3.00;;
60917;SDS011;46792;38.854;-9.384;2023-05-10T06:25:32;18.42;;;3.85;;
60917;SDS011;46792;38.854;-9.384;2023-05-10T06:27:33;23.02;;;3.53;;
60917;SDS011;46792;38.854;-9.384;2023-05-10T06:29:34;22.65;;;4.65;;
60917;SDS011;46792;38.854;-9.384;2023-05-10T06:31:34;21.30;;;4.03;;
60917;SDS011;46792;38.854;-9.384;2023-05-10T06:33:53;17.52;;;2.97;;
60917;SDS011;46792;38.854;-9.384;2023-05-10T06:36:12;20.63;;;4.28;;
60917;SDS011;46792;38.854;-9.384;2023-05-10T06:38:13;15.38;;;3.53;;
60917;SDS011;46792;38.854;-9.384;2023-05-10T06:40:14;18.10;;;3.35;;
60917;SDS011;46792;38.854;-9.384;2023-05-10T06:42:32;21.63;;;3.60;;
60917;SDS011;46792;38.854;-9.384;2023-05-10T06:44:33;17.63;;;3.17;;
60917;SDS011;46792;38.854;-9.384;2023-05-10T06:46:34;19.20;;;3.38;;
60917;SDS011;46792;38.854;-9.384;2023-05-10T06:48:53;15.00;;;3.40;;
60917;SDS011;46792;38.854;-9.384;2023-05-10T06:51:12;15.38;;;3.13;;
60917;SDS011;46792;38.854;-9.384;2023-05-10T06:53:13;16.95;;;3.63;;
60917;SDS011;46792;38.854;-9.384;2023-05-10T06:55:14;8.98;;;2.10;;
60917;SDS011;46792;38.854;-9.384;2023-05-10T06:57:14;28.35;;;4.10;;
60917;SDS011;46792;38.854;-9.384;2023-05-10T06:59:33;35.50;;;3.85;;
60917;SDS011;46792;38.854;-9.384;2023-05-10T07:01:34;15.95;;;2.67;;
60917;SDS011;46792;38.854;-9.384;2023-05-10T07:03:37;18.40;;;2.70;;
60917;SDS011;46792;38.854;-9.384;2023-05-10T07:05:38;11.40;;;3.10;;
60917;SDS011;46792;38.854;-9.384;2023-05-10T07:07:38;16.10;;;3.20;;
60917;SDS011;46792;38.854;-9.384;2023-05-10T07:09:39;10.75;;;3.25;;
60917;SDS011;46792;38.854;-9.384;2023-05-10T07:11:40;20.02;;;2.95;;
60917;SDS011;46792;38.854;-9.384;2023-05-10T07:13:41;17.63;;;3.55;;
60917;SDS011;46792;38.854;-9.384;2023-05-10T07:15:44;13.30;;;3.05;;
60917;SDS011;46792;38.854;-9.384;2023-05-10T07:17:44;20.80;;;2.97;;
60917;SDS011;46792;38.854;-9.384;2023-05-10T07:19:46;33.00;;;3.50;;
60917;SDS011;46792;38.854;-9.384;2023-05-10T07:21:47;15.40;;;2.35;;
60917;SDS011;46792;38.854;-9.384;2023-05-10T07:24:06;16.55;;;4.05;;
60917;SDS011;46792;38.854;-9.384;2023-05-10T07:26:08;27.45;;;4.25;;
60917;SDS011;46792;38.854;-9.384;2023-05-10T07:28:09;25.80;;;3.20;;
60917;SDS011;46792;38.854;-9.384;2023-05-10T07:30:10;12.43;;;2.58;;
60917;SDS011;46792;38.854;-9.384;2023-05-10T07:32:12;16.40;;;2.92;;
60917;SDS011;46792;38.854;-9.384;2023-05-10T07:34:12;28.98;;;3.47;;
60917;SDS011;46792;38.854;-9.384;2023-05-10T07:36:14;23.73;;;3.38;;
60917;SDS011;46792;38.854;-9.384;2023-05-10T07:38:17;24.38;;;2.83;;
60917;SDS011;46792;38.854;-9.384;2023-05-10T07:40:17;18.33;;;4.40;;
60917;SDS011;46792;38.854;-9.384;2023-05-10T07:42:18;19.80;;;4.30;;
60917;SDS011;46792;38.854;-9.384;2023-05-10T07:44:25;19.92;;;3.53;;
60917;SDS011;46792;38.854;-9.384;2023-05-10T07:46:26;19.73;;;2.90;;
60917;SDS011;46792;38.854;-9.384;2023-05-10T07:48:26;20.13;;;4.00;;
60917;SDS011;46792;38.854;-9.384;2023-05-10T07:50:27;25.90;;;3.78;;
60917;SDS011;46792;38.854;-9.384;2023-05-10T07:52:28;19.10;;;3.95;;
60917;SDS011;46792;38.854;-9.384;2023-05-10T07:54:28;25.05;;;3.08;;
60917;SDS011;46792;38.854;-9.384;2023-05-10T07:56:30;15.02;;;3.45;;
60917;SDS011;46792;38.854;-9.384;2023-05-10T07:58:32;20.05;;;4.35;;
60917;SDS011;46792;38.854;-9.384;2023-05-10T08:00:33;27.48;;;3.40;;
60917;SDS011;46792;38.854;-9.384;2023-05-10T08:02:34;12.98;;;2.80;;
60917;SDS011;46792;38.854;-9.384;2023-05-10T08:04:36;16.10;;;3.03;;
60917;SDS011;46792;38.854;-9.384;2023-05-10T08:06:37;19.05;;;2.85;;
60917;SDS011;46792;38.854;-9.384;2023-05-10T08:08:56;16.27;;;2.88;;
60917;SDS011;46792;38.854;-9.384;2023-05-10T08:10:57;36.58;;;3.95;;
60917;SDS011;46792;38.854;-9.384;2023-05-10T08:12:58;16.60;;;2.63;;
60917;SDS011;46792;38.854;-9.384;2023-05-10T08:14:58;16.08;;;3.13;;
60917;SDS011;46792;38.854;-9.384;2023-05-10T08:16:59;20.63;;;3.35;;
60917;SDS011;46792;38.854;-9.384;2023-05-10T08:19:03;17.45;;;2.85;;
60917;SDS011;46792;38.854;-9.384;2023-05-10T08:21:04;16.08;;;4.55;;
60917;SDS011;46792;38.854;-9.384;2023-05-10T08:23:06;11.95;;;2.10;;
60917;SDS011;46792;38.854;-9.384;2023-05-10T08:25:07;22.60;;;2.80;;
60917;SDS011;46792;38.854;-9.384;2023-05-10T08:27:08;12.45;;;2.65;;
60917;SDS011;46792;38.854;-9.384;2023-05-10T08:29:09;10.05;;;1.88;;
60917;SDS011;46792;38.854;-9.384;2023-05-10T08:31:09;14.85;;;2.15;;
60917;SDS011;46792;38.854;-9.384;2023-05-10T08:33:10;38.03;;;4.07;;
60917;SDS011;46792;38.854;-9.384;2023-05-10T08:35:11;10.65;;;2.72;;
60917;SDS011;46792;38.854;-9.384;2023-05-10T08:37:13;22.20;;;2.30;;
60917;SDS011;46792;38.854;-9.384;2023-05-10T08:39:13;21.42;;;2.53;;
60917;SDS011;46792;38.854;-9.384;2023-05-10T08:41:14;14.30;;;2.92;;
60917;SDS011;46792;38.854;-9.384;2023-05-10T08:43:15;19.63;;;2.97;;
60917;SDS011;46792;38.854;-9.384;2023-05-10T08:45:15;11.77;;;2.20;;
60917;SDS011;46792;38.854;-9.384;2023-05-10T08:47:19;17.23;;;2.90;;
60917;SDS011;46792;38.854;-9.384;2023-05-10T08:49:20;14.25;;;2.05;;
60917;SDS011;46792;38.854;-9.384;2023-05-10T08:51:24;9.60;;;2.05;;
60917;SDS011;46792;38.854;-9.384;2023-05-10T08:53:27;9.20;;;2.33;;
60917;SDS011;46792;38.854;-9.384;2023-05-10T08:55:31;14.10;;;2.67;;
60917;SDS011;46792;38.854;-9.384;2023-05-10T08:57:33;13.48;;;2.72;;
60917;SDS011;46792;38.854;-9.384;2023-05-10T08:59:34;19.20;;;2.72;;
60917;SDS011;46792;38.854;-9.384;2023-05-10T09:01:35;14.80;;;2.63;;
60917;SDS011;46792;38.854;-9.384;2023-05-10T09:03:38;15.63;;;2.22;;
60917;SDS011;46792;38.854;-9.384;2023-05-10T09:05:39;12.05;;;2.03;;
60917;SDS011;46792;38.854;-9.384;2023-05-10T09:07:41;18.33;;;2.65;;
60917;SDS011;46792;38.854;-9.384;2023-05-10T09:09:42;11.05;;;2.53;;
60917;SDS011;46792;38.854;-9.384;2023-05-10T09:11:44;8.88;;;1.75;;
60917;SDS011;46792;38.854;-9.384;2023-05-10T09:13:45;14.95;;;2.03;;
60917;SDS011;46792;38.854;-9.384;2023-05-10T09:15:48;14.68;;;2.53;;
60917;SDS011;46792;38.854;-9.384;2023-05-10T09:17:49;11.48;;;2.00;;
60917;SDS011;46792;38.854;-9.384;2023-05-10T09:19:56;15.93;;;1.77;;
60917;SDS011;46792;38.854;-9.384;2023-05-10T09:22:04;15.05;;;2.40;;
60917;SDS011;46792;38.854;-9.384;2023-05-10T09:24:05;8.77;;;1.90;;
60917;SDS011;46792;38.854;-9.384;2023-05-10T09:26:07;10.00;;;2.28;;
60917;SDS011;46792;38.854;-9.384;2023-05-10T09:28:08;9.65;;;1.92;;
60917;SDS011;46792;38.854;-9.384;2023-05-10T09:30:09;5.95;;;1.70;;
60917;SDS011;46792;38.854;-9.384;2023-05-10T09:32:10;25.20;;;2.40;;
60917;SDS011;46792;38.854;-9.384;2023-05-10T09:34:11;10.65;;;2.00;;
60917;SDS011;46792;38.854;-9.384;2023-05-10T09:36:15;12.23;;;3.47;;
60917;SDS011;46792;38.854;-9.384;2023-05-10T09:38:16;13.75;;;2.35;;
60917;SDS011;46792;38.854;-9.384;2023-05-10T09:40:20;8.02;;;1.77;;
60917;SDS011;46792;38.854;-9.384;2023-05-10T09:42:22;17.50;;;3.00;;
60917;SDS011;46792;38.854;-9.384;2023-05-10T09:44:25;7.60;;;1.92;;
60917;SDS011;46792;38.854;-9.384;2023-05-10T09:46:48;22.48;;;2.13;;
60917;SDS011;46792;38.854;-9.384;2023-05-10T09:49:07;59.88;;;6.10;;
60917;SDS011;46792;38.854;-9.384;2023-05-10T09:51:26;13.20;;;1.77;;
60917;SDS011;46792;38.854;-9.384;2023-05-10T09:53:46;9.63;;;1.88;;
60917;SDS011;46792;38.854;-9.384;2023-05-10T09:56:06;16.42;;;2.58;;
60917;SDS011;46792;38.854;-9.384;2023-05-10T09:58:12;16.42;;;2.45;;
60917;SDS011;46792;38.854;-9.384;2023-05-10T10:00:17;13.30;;;2.25;;
60917;SDS011;46792;38.854;-9.384;2023-05-10T10:02:19;12.00;;;1.73;;
60917;SDS011;46792;38.854;-9.384;2023-05-10T10:04:19;6.97;;;1.73;;
60917;SDS011;46792;38.854;-9.384;2023-05-10T10:06:22;7.13;;;1.98;;
60917;SDS011;46792;38.854;-9.384;2023-05-10T10:08:23;10.63;;;1.75;;
60917;SDS011;46792;38.854;-9.384;2023-05-10T10:10:25;14.95;;;2.58;;
60917;SDS011;46792;38.854;-9.384;2023-05-10T10:12:26;10.35;;;2.17;;
60917;SDS011;46792;38.854;-9.384;2023-05-10T10:14:31;14.10;;;1.90;;
60917;SDS011;46792;38.854;-9.384;2023-05-10T10:16:32;19.98;;;2.60;;
60917;SDS011;46792;38.854;-9.384;2023-05-10T10:18:36;11.02;;;2.38;;
60917;SDS011;46792;38.854;-9.384;2023-05-10T10:20:40;12.27;;;2.83;;
60917;SDS011;46792;38.854;-9.384;2023-05-10T10:22:41;14.07;;;2.30;;
60917;SDS011;46792;38.854;-9.384;2023-05-10T10:24:43;5.63;;;1.52;;
60917;SDS011;46792;38.854;-9.384;2023-05-10T10:26:44;14.50;;;3.17;;
60917;SDS011;46792;38.854;-9.384;2023-05-10T10:29:16;10.18;;;1.90;;
60917;SDS011;46792;38.854;-9.384;2023-05-10T10:32:22;13.23;;;2.42;;
60917;SDS011;46792;38.854;-9.384;2023-05-10T10:34:30;6.35;;;1.90;;
60917;SDS011;46792;38.854;-9.384;2023-05-10T10:36:31;10.80;;;2.55;;
60917;SDS011;46792;38.854;-9.384;2023-05-10T10:40:46;10.45;;;1.48;;
60917;SDS011;46792;38.854;-9.384;2023-05-10T10:42:47;10.00;;;1.80;;
60917;SDS011;46792;38.854;-9.384;2023-05-10T10:44:50;11.13;;;2.45;;
60917;SDS011;46792;38.854;-9.384;2023-05-10T10:49:18;5.22;;;1.88;;
60917;SDS011;46792;38.854;-9.384;2023-05-10T10:51:19;22.40;;;2.33;;
60917;SDS011;46792;38.854;-9.384;2023-05-10T10:53:20;10.52;;;3.47;;
60917;SDS011;46792;38.854;-9.384;2023-05-10T10:55:21;17.23;;;3.03;;
60917;SDS011;46792;38.854;-9.384;2023-05-10T11:02:34;11.73;;;2.20;;
60917;SDS011;46792;38.854;-9.384;2023-05-10T11:04:43;12.30;;;2.15;;
60917;SDS011;46792;38.854;-9.384;2023-05-10T11:08:48;21.60;;;2.67;;
60917;SDS011;46792;38.854;-9.384;2023-05-10T11:10:51;9.40;;;2.00;;
60917;SDS011;46792;38.854;-9.384;2023-05-10T11:13:12;15.10;;;1.83;;
60917;SDS011;46792;38.854;-9.384;2023-05-10T11:15:13;15.65;;;2.83;;
60917;SDS011;46792;38.854;-9.384;2023-05-10T11:17:29;19.80;;;2.08;;
60917;SDS011;46792;38.854;-9.384;2023-05-10T11:19:30;12.25;;;1.92;;
60917;SDS011;46792;38.854;-9.384;2023-05-10T11:21:31;9.43;;;1.75;;
60917;SDS011;46792;38.854;-9.384;2023-05-10T11:25:42;5.25;;;1.52;;
60917;SDS011;46792;38.854;-9.384;2023-05-10T11:27:44;16.48;;;1.55;;
60917;SDS011;46792;38.854;-9.384;2023-05-10T11:29:51;10.88;;;2.25;;
60917;SDS011;46792;38.854;-9.384;2023-05-10T11:31:52;6.95;;;1.60;;
60917;SDS011;46792;38.854;-9.384;2023-05-10T11:33:53;13.50;;;1.48;;
60917;SDS011;46792;38.854;-9.384;2023-05-10T11:35:55;11.38;;;2.05;;
60917;SDS011;46792;38.854;-9.384;2023-05-10T11:37:56;21.98;;;2.78;;
60917;SDS011;46792;38.854;-9.384;2023-05-10T11:39:56;9.73;;;1.52;;
60917;SDS011;46792;38.854;-9.384;2023-05-10T11:41:57;10.48;;;1.42;;
60917;SDS011;46792;38.854;-9.384;2023-05-10T11:43:58;13.18;;;1.30;;
60917;SDS011;46792;38.854;-9.384;2023-05-10T11:45:59;6.05;;;1.15;;
60917;SDS011;46792;38.854;-9.384;2023-05-10T11:48:00;3.70;;;1.35;;
60917;SDS011;46792;38.854;-9.384;2023-05-10T11:50:01;14.40;;;1.55;;
60917;SDS011;46792;38.854;-9.384;2023-05-10T11:52:05;6.80;;;1.40;;
60917;SDS011;46792;38.854;-9.384;2023-05-10T11:54:08;17.00;;;2.78;;
60917;SDS011;46792;38.854;-9.384;2023-05-10T11:56:11;19.58;;;2.83;;
60917;SDS011;46792;38.854;-9.384;2023-05-10T11:58:11;7.10;;;1.38;;
60917;SDS011;46792;38.854;-9.384;2023-05-10T12:00:12;2.63;;;0.98;;
60917;SDS011;46792;38.854;-9.384;2023-05-10T12:02:18;10.80;;;1.65;;
60917;SDS011;46792;38.854;-9.384;2023-05-10T12:04:19;8.80;;;2.05;;
60917;SDS011;46792;38.854;-9.384;2023-05-10T12:06:20;12.75;;;2.08;;
60917;SDS011;46792;38.854;-9.384;2023-05-10T12:08:43;6.40;;;1.33;;
60917;SDS011;46792;38.854;-9.384;2023-05-10T12:11:06;7.80;;;1.63;;
60917;SDS011;46792;38.854;-9.384;2023-05-10T12:13:14;12.10;;;2.00;;
60917;SDS011;46792;38.854;-9.384;2023-05-10T12:15:19;10.50;;;1.63;;
60917;SDS011;46792;38.854;-9.384;2023-05-10T12:17:20;7.72;;;1.52;;
60917;SDS011;46792;38.854;-9.384;2023-05-10T12:19:21;5.32;;;1.50;;
60917;SDS011;46792;38.854;-9.384;2023-05-10T12:21:22;10.65;;;1.92;;
60917;SDS011;46792;38.854;-9.384;2023-05-10T12:23:23;5.43;;;1.55;;
60917;SDS011;46792;38.854;-9.384;2023-05-10T12:25:29;11.55;;;2.03;;
60917;SDS011;46792;38.854;-9.384;2023-05-10T12:27:34;19.88;;;2.40;;
60917;SDS011;46792;38.854;-9.384;2023-05-10T12:29:35;8.00;;;1.38;;
60917;SDS011;46792;38.854;-9.384;2023-05-10T12:31:52;14.65;;;2.30;;
60917;SDS011;46792;38.854;-9.384;2023-05-10T12:33:54;10.00;;;1.65;;
60917;SDS011;46792;38.854;-9.384;2023-05-10T12:35:55;11.23;;;1.35;;
60917;SDS011;46792;38.854;-9.384;2023-05-10T12:37:59;11.45;;;1.65;;
60917;SDS011;46792;38.854;-9.384;2023-05-10T12:40:00;10.80;;;1.80;;
60917;SDS011;46792;38.854;-9.384;2023-05-10T12:42:19;15.32;;;1.80;;
60917;SDS011;46792;38.854;-9.384;2023-05-10T12:44:19;19.15;;;2.78;;
60917;SDS011;46792;38.854;-9.384;2023-05-10T12:46:21;11.75;;;2.05;;